Terminal Aerodrome Forecast
Issued by NWS Cleveland, OH

Home | Current Version | Previous Version | Text Only | Print | Product List | Glossary On
Versions: 1 2 3 4 5 6 7 8 9 10 11 12 13 14 15 16 17 18 19
942
FTUS41 KCLE 231212 AAA
TAFMFD
TAF AMD
KMFD 231212Z 2312/2412 33006KT P6SM BKN015
      TEMPO 2312/2314 BKN007
     FM231600 02006KT P6SM SCT050
     FM232300 VRB03KT P6SM SKC=

USA.gov is the U.S. government's official web portal to all federal, state and local government web resources and services.